Check out our new BloomSky Weather System.

Active alerts


No alerts


Thunder radar  blitzortung!


Rain radar more information rain snow radar


Visit our other weather sites:

Template documentation
and downloads

And another site



Weather Underground History page Text

Daily Summary for October 9, 2017 Units:  English    Metric   Both
« Previous Day
Next Day »
Daily Weekly Monthly Yearly Custom
  High: Low: Average:
Temperature: 93.7 °F 71.8 °F 82.2 °F
Dew Point: 79.2 °F 70.9 °F 74.7 °F
Humidity: 100 % 53 % 80 %
Wind Speed: 10.0 mph 0.0 mph 2.3 mph
Wind Gust: 15.0 mph - -
Wind:- - SE
Pressure: 29.88 in 29.71 in -
Precipitation: 0.00 in    
Historical Graphs
 
 
Tabular Data for October 9, 2017
Time Temperature Dew Point Pressure Wind Wind Speed Wind Gust Humidity Rainfall Rate (Hourly)
00:02 77.4 °F 73.2 °F 29.71 in SSE 1.0 mph 1.0 mph 87 % 0.00 in
00:12 76.8 °F 72.7 °F 29.71 in Calm   1.0 mph 87 % 0.00 in
00:17 76.6 °F 72.9 °F 29.71 in Calm   1.0 mph 88 % 0.00 in
00:22 76.5 °F 73.0 °F 29.71 in Calm     89 % 0.00 in
00:27 76.3 °F 72.9 °F 29.71 in Calm     89 % 0.00 in
00:32 76.3 °F 72.9 °F 29.71 in Calm     89 % 0.00 in
00:37 75.9 °F 72.5 °F 29.71 in Calm     89 % 0.00 in
00:42 75.7 °F 72.7 °F 29.71 in Calm     90 % 0.00 in
00:47 75.6 °F 72.5 °F 29.71 in Calm     90 % 0.00 in
00:52 75.4 °F 72.5 °F 29.71 in Calm     91 % 0.00 in
00:57 75.0 °F 72.1 °F 29.72 in Calm     91 % 0.00 in
01:02 74.8 °F 72.0 °F 29.71 in Calm     91 % 0.00 in
01:07 74.5 °F 72.0 °F 29.71 in Calm     92 % 0.00 in
01:12 74.3 °F 71.8 °F 29.71 in Calm     92 % 0.00 in
01:17 74.1 °F 71.6 °F 29.72 in Calm     92 % 0.00 in
01:22 73.9 °F 71.8 °F 29.72 in Calm     93 % 0.00 in
01:27 73.9 °F 71.8 °F 29.72 in Calm     93 % 0.00 in
01:32 73.9 °F 72.1 °F 29.72 in Calm     94 % 0.00 in
01:38 73.8 °F 72.0 °F 29.71 in Calm     94 % 0.00 in
01:43 73.6 °F 71.8 °F 29.72 in Calm     94 % 0.00 in
01:48 73.4 °F 71.6 °F 29.72 in Calm     94 % 0.00 in
01:53 73.4 °F 71.6 °F 29.71 in Calm     94 % 0.00 in
01:55 73.2 °F 71.8 °F 29.71 in Calm     95 % 0.00 in
02:00 73.2 °F 71.8 °F 29.72 in Calm     95 % 0.00 in
02:05 73.2 °F 71.8 °F 29.72 in Calm     95 % 0.00 in
02:15 73.0 °F 71.6 °F 29.72 in Calm     95 % 0.00 in
02:21 73.0 °F 71.6 °F 29.72 in Calm     95 % 0.00 in
02:26 72.9 °F 71.4 °F 29.72 in Calm     95 % 0.00 in
02:31 72.7 °F 71.2 °F 29.72 in Calm     95 % 0.00 in
02:36 72.7 °F 71.4 °F 29.72 in Calm     96 % 0.00 in
02:41 72.5 °F 71.2 °F 29.72 in Calm     96 % 0.00 in
02:46 72.1 °F 70.9 °F 29.72 in Calm     96 % 0.00 in
02:51 72.1 °F 70.9 °F 29.72 in Calm     96 % 0.00 in
02:56 72.3 °F 71.1 °F 29.72 in Calm     96 % 0.00 in
03:01 72.3 °F 71.1 °F 29.72 in Calm     96 % 0.00 in
03:06 72.1 °F 70.9 °F 29.72 in Calm     96 % 0.00 in
03:11 72.1 °F 71.2 °F 29.72 in Calm     97 % 0.00 in
03:16 72.1 °F 71.2 °F 29.72 in Calm     97 % 0.00 in
03:21 72.1 °F 71.2 °F 29.72 in Calm     97 % 0.00 in
03:26 72.0 °F 71.1 °F 29.72 in Calm     97 % 0.00 in
03:31 72.1 °F 71.2 °F 29.72 in Calm     97 % 0.00 in
03:36 72.0 °F 71.1 °F 29.72 in Calm     97 % 0.00 in
03:41 72.0 °F 71.1 °F 29.72 in Calm     97 % 0.00 in
03:46 72.0 °F 71.1 °F 29.72 in Calm     97 % 0.00 in
03:51 72.0 °F 71.1 °F 29.72 in Calm     97 % 0.00 in
03:56 72.0 °F 71.1 °F 29.72 in Calm     97 % 0.00 in
04:01 72.0 °F 71.4 °F 29.72 in Calm     98 % 0.00 in
04:06 72.0 °F 71.4 °F 29.72 in Calm     98 % 0.00 in
04:11 71.8 °F 71.2 °F 29.72 in Calm     98 % 0.00 in
04:16 71.8 °F 71.2 °F 29.72 in Calm     98 % 0.00 in
04:21 71.8 °F 71.2 °F 29.72 in Calm     98 % 0.00 in
04:26 71.8 °F 71.2 °F 29.72 in Calm     98 % 0.00 in
04:31 71.8 °F 71.2 °F 29.72 in Calm     98 % 0.00 in
04:36 71.8 °F 71.2 °F 29.72 in Calm     98 % 0.00 in
04:41 71.8 °F 71.2 °F 29.72 in Calm     98 % 0.00 in
04:46 72.0 °F 71.4 °F 29.72 in Calm     98 % 0.00 in
04:51 72.0 °F 71.4 °F 29.73 in Calm     98 % 0.00 in
04:56 72.0 °F 71.4 °F 29.73 in Calm     98 % 0.00 in
05:01 72.0 °F 71.4 °F 29.73 in Calm     98 % 0.00 in
05:06 72.0 °F 71.4 °F 29.73 in Calm     98 % 0.00 in
05:08 72.1 °F 71.6 °F 29.73 in Calm     98 % 0.00 in
05:13 72.1 °F 71.6 °F 29.73 in Calm     98 % 0.00 in
05:18 72.0 °F 71.4 °F 29.73 in Calm     98 % 0.00 in
05:23 72.0 °F 71.4 °F 29.73 in Calm     98 % 0.00 in
05:28 72.0 °F 71.4 °F 29.73 in Calm     98 % 0.00 in
05:33 72.0 °F 71.6 °F 29.74 in Calm     99 % 0.00 in
05:38 72.0 °F 71.4 °F 29.74 in Calm     98 % 0.00 in
05:43 72.0 °F 71.6 °F 29.74 in Calm     99 % 0.00 in
05:48 72.0 °F 71.6 °F 29.74 in Calm     99 % 0.00 in
05:53 72.0 °F 71.6 °F 29.74 in Calm     99 % 0.00 in
05:58 72.1 °F 71.8 °F 29.74 in Calm     99 % 0.00 in
06:03 72.1 °F 71.8 °F 29.74 in Calm     99 % 0.00 in
06:08 72.1 °F 71.8 °F 29.75 in Calm     99 % 0.00 in
06:13 72.1 °F 71.8 °F 29.74 in Calm     99 % 0.00 in
06:18 72.5 °F 72.1 °F 29.75 in Calm     99 % 0.00 in
06:23 72.7 °F 72.3 °F 29.75 in Calm   1.0 mph 99 % 0.00 in
06:28 72.7 °F 72.3 °F 29.75 in Calm   1.0 mph 99 % 0.00 in
06:33 72.7 °F 72.3 °F 29.75 in Calm   1.0 mph 99 % 0.00 in
06:38 72.7 °F 72.3 °F 29.75 in Calm   1.0 mph 99 % 0.00 in
06:43 72.7 °F 72.3 °F 29.75 in Calm   1.0 mph 99 % 0.00 in
06:48 72.7 °F 72.3 °F 29.75 in Calm   1.0 mph 99 % 0.00 in
06:53 72.7 °F 72.3 °F 29.76 in Calm   1.0 mph 99 % 0.00 in
06:58 72.7 °F 72.3 °F 29.76 in Calm   1.0 mph 99 % 0.00 in
07:03 72.7 °F 72.3 °F 29.76 in Calm     99 % 0.00 in
07:08 72.7 °F 72.3 °F 29.76 in Calm   1.0 mph 99 % 0.00 in
07:13 72.5 °F 72.1 °F 29.76 in Calm   1.0 mph 99 % 0.00 in
07:18 72.3 °F 72.0 °F 29.77 in Calm   1.0 mph 99 % 0.00 in
07:23 72.3 °F 72.0 °F 29.77 in Calm   1.0 mph 99 % 0.00 in
07:28 72.3 °F 72.0 °F 29.77 in Calm     99 % 0.00 in
07:33 72.7 °F 72.3 °F 29.77 in Calm     99 % 0.00 in
07:38 72.7 °F 72.3 °F 29.77 in Calm   1.0 mph 99 % 0.00 in
07:44 73.0 °F 73.0 °F 29.77 in Calm   1.0 mph 100 % 0.00 in
07:49 72.9 °F 72.5 °F 29.77 in Calm   1.0 mph 99 % 0.00 in
07:54 73.0 °F 72.7 °F 29.78 in Calm   1.0 mph 99 % 0.00 in
07:59 73.4 °F 73.4 °F 29.78 in Calm   1.0 mph 100 % 0.00 in
08:04 73.6 °F 73.2 °F 29.78 in Calm   1.0 mph 99 % 0.00 in
08:09 73.8 °F 73.8 °F 29.78 in SE 1.0 mph 1.0 mph 100 % 0.00 in
08:14 74.1 °F 74.1 °F 29.78 in Calm   1.0 mph 100 % 0.00 in
08:19 74.8 °F 74.8 °F 29.79 in East 1.0 mph 1.0 mph 100 % 0.00 in
08:24 75.4 °F 75.4 °F 29.79 in Calm   2.0 mph 100 % 0.00 in
08:29 76.1 °F 76.1 °F 29.79 in Calm   2.0 mph 100 % 0.00 in
08:34 76.8 °F 76.8 °F 29.79 in Calm   2.0 mph 100 % 0.00 in
08:39 77.5 °F 77.2 °F 29.79 in Calm   2.0 mph 99 % 0.00 in
08:44 78.3 °F 77.7 °F 29.79 in ESE 2.0 mph 2.0 mph 98 % 0.00 in
08:49 78.4 °F 77.5 °F 29.79 in SSE 1.0 mph 3.0 mph 97 % 0.00 in
08:54 79.0 °F 78.1 °F 29.79 in East 2.0 mph 4.0 mph 97 % 0.00 in
08:59 79.3 °F 77.7 °F 29.80 in ENE 1.0 mph 4.0 mph 95 % 0.00 in
09:04 79.9 °F 78.1 °F 29.80 in East 2.0 mph 4.0 mph 94 % 0.00 in
09:14 81.0 °F 78.1 °F 29.80 in South 4.0 mph 4.0 mph 91 % 0.00 in
09:24 82.0 °F 78.4 °F 29.80 in ESE 1.0 mph 6.0 mph 89 % 0.00 in
09:29 82.2 °F 78.3 °F 29.80 in South 4.0 mph 6.0 mph 88 % 0.00 in
09:34 82.6 °F 78.6 °F 29.80 in SSW 3.0 mph 7.0 mph 88 % 0.00 in
09:35 82.6 °F 78.6 °F 29.80 in SE 4.0 mph 7.0 mph 88 % 0.00 in
09:40 82.8 °F 78.1 °F 29.80 in SE 2.0 mph 7.0 mph 86 % 0.00 in
09:45 83.1 °F 78.4 °F 29.81 in Calm   6.0 mph 86 % 0.00 in
09:55 84.2 °F 77.7 °F 29.81 in SE 3.0 mph 8.0 mph 81 % 0.00 in
10:00 84.2 °F 78.1 °F 29.81 in SE 3.0 mph 8.0 mph 82 % 0.00 in
10:05 84.4 °F 78.3 °F 29.81 in South 4.0 mph 8.0 mph 82 % 0.00 in
10:10 84.7 °F 77.9 °F 29.81 in SSE 4.0 mph 8.0 mph 80 % 0.00 in
10:15 85.3 °F 79.2 °F 29.81 in SSW 3.0 mph 8.0 mph 82 % 0.00 in
10:20 85.6 °F 77.9 °F 29.81 in ESE 3.0 mph 8.0 mph 78 % 0.00 in
10:25 85.6 °F 77.9 °F 29.81 in SSW 3.0 mph 8.0 mph 78 % 0.00 in
10:35 85.6 °F 77.2 °F 29.81 in SSE 6.0 mph 8.0 mph 76 % 0.00 in
10:40 85.5 °F 76.6 °F 29.81 in SE 7.0 mph 8.0 mph 75 % 0.00 in
10:50 86.7 °F 77.4 °F 29.81 in SSE 5.0 mph 8.0 mph 74 % 0.00 in
10:55 86.9 °F 77.2 °F 29.81 in ESE 3.0 mph 10.0 mph 73 % 0.00 in
11:00 87.3 °F 76.6 °F 29.81 in ESE 6.0 mph 10.0 mph 71 % 0.00 in
11:05 87.4 °F 76.8 °F 29.81 in SE 5.0 mph 10.0 mph 71 % 0.00 in
11:10 87.6 °F 77.0 °F 29.81 in ESE 6.0 mph 9.0 mph 71 % 0.00 in
11:15 88.2 °F 76.3 °F 29.81 in SE 8.0 mph 10.0 mph 68 % 0.00 in
11:21 88.0 °F 76.5 °F 29.81 in SSE 5.0 mph 10.0 mph 69 % 0.00 in
11:26 88.3 °F 76.5 °F 29.81 in ESE 2.0 mph 11.0 mph 68 % 0.00 in
11:31 88.5 °F 77.0 °F 29.81 in SSE 6.0 mph 11.0 mph 69 % 0.00 in
11:36 88.9 °F 76.1 °F 29.81 in SE 3.0 mph 11.0 mph 66 % 0.00 in
11:41 88.5 °F 76.6 °F 29.81 in SSE 7.0 mph 10.0 mph 68 % 0.00 in
11:46 88.2 °F 75.7 °F 29.81 in South 4.0 mph 10.0 mph 67 % 0.00 in
11:51 88.3 °F 77.4 °F 29.81 in SE 2.0 mph 8.0 mph 70 % 0.00 in
11:56 88.9 °F 76.5 °F 29.81 in SSE 3.0 mph 9.0 mph 67 % 0.00 in
12:01 89.1 °F 76.3 °F 29.80 in South 2.0 mph 9.0 mph 66 % 0.00 in
12:06 89.1 °F 76.3 °F 29.80 in SSW 1.0 mph 9.0 mph 66 % 0.00 in
12:11 89.2 °F 76.5 °F 29.80 in SSE 6.0 mph 6.0 mph 66 % 0.00 in
12:16 89.2 °F 77.4 °F 29.80 in SSW 3.0 mph 8.0 mph 68 % 0.00 in
12:21 89.8 °F 77.4 °F 29.80 in SE 4.0 mph 8.0 mph 67 % 0.00 in
12:26 90.3 °F 77.4 °F 29.80 in SSW 2.0 mph 8.0 mph 66 % 0.00 in
12:31 90.7 °F 77.7 °F 29.79 in East 3.0 mph 7.0 mph 66 % 0.00 in
12:36 90.7 °F 77.4 °F 29.79 in SSE 6.0 mph 8.0 mph 65 % 0.00 in
12:41 90.5 °F 76.6 °F 29.79 in SE 4.0 mph 9.0 mph 64 % 0.00 in
12:46 90.9 °F 77.0 °F 29.79 in SSE 7.0 mph 9.0 mph 64 % 0.00 in
12:51 91.2 °F 75.9 °F 29.79 in SE 6.0 mph 9.0 mph 61 % 0.00 in
12:56 91.0 °F 76.3 °F 29.79 in SE 4.0 mph 12.0 mph 62 % 0.00 in
13:01 91.2 °F 75.9 °F 29.79 in SSE 2.0 mph 12.0 mph 61 % 0.00 in
13:06 90.9 °F 75.6 °F 29.78 in East 9.0 mph 12.0 mph 61 % 0.00 in
13:11 90.9 °F 76.5 °F 29.78 in ENE 4.0 mph 11.0 mph 63 % 0.00 in
13:16 91.2 °F 76.3 °F 29.78 in SSE 6.0 mph 10.0 mph 62 % 0.00 in
13:21 91.2 °F 75.4 °F 29.78 in SSE 2.0 mph 15.0 mph 60 % 0.00 in
13:26 90.9 °F 76.1 °F 29.78 in South 2.0 mph 15.0 mph 62 % 0.00 in
13:31 91.6 °F 76.3 °F 29.78 in SSE 5.0 mph 15.0 mph 61 % 0.00 in
13:36 91.9 °F 76.1 °F 29.77 in SSW 4.0 mph 10.0 mph 60 % 0.00 in
13:41 92.5 °F 76.6 °F 29.77 in ESE 7.0 mph 9.0 mph 60 % 0.00 in
13:51 92.8 °F 76.8 °F 29.77 in SSE 5.0 mph 8.0 mph 60 % 0.00 in
13:56 92.5 °F 76.1 °F 29.76 in SE 2.0 mph 8.0 mph 59 % 0.00 in
14:01 92.1 °F 76.3 °F 29.76 in SSW 6.0 mph 10.0 mph 60 % 0.00 in
14:06 91.4 °F 77.0 °F 29.76 in SE 1.0 mph 10.0 mph 63 % 0.00 in
14:11 91.8 °F 76.5 °F 29.76 in SSW 7.0 mph 10.0 mph 61 % 0.00 in
14:14 91.6 °F 75.7 °F 29.76 in SE 4.0 mph 10.0 mph 60 % 0.00 in
14:19 91.2 °F 75.4 °F 29.75 in SE 10.0 mph 11.0 mph 60 % 0.00 in
14:24 91.8 °F 75.9 °F 29.75 in SE 7.0 mph 11.0 mph 60 % 0.00 in
14:29 92.1 °F 75.7 °F 29.75 in SE 8.0 mph 11.0 mph 59 % 0.00 in
14:34 91.9 °F 75.0 °F 29.75 in South 7.0 mph 11.0 mph 58 % 0.00 in
14:39 91.6 °F 75.2 °F 29.75 in SE 2.0 mph 11.0 mph 59 % 0.00 in
14:44 91.8 °F 75.4 °F 29.75 in ENE 6.0 mph 10.0 mph 59 % 0.00 in
14:49 91.6 °F 74.7 °F 29.75 in SSE 3.0 mph 10.0 mph 58 % 0.00 in
14:54 91.9 °F 75.0 °F 29.75 in ESE 4.0 mph 8.0 mph 58 % 0.00 in
15:00 92.8 °F 75.4 °F 29.75 in SSW 2.0 mph 9.0 mph 57 % 0.00 in
15:05 92.8 °F 75.4 °F 29.75 in SSW 3.0 mph 11.0 mph 57 % 0.00 in
15:10 93.2 °F 75.2 °F 29.75 in South 5.0 mph 11.0 mph 56 % 0.00 in
15:15 93.4 °F 75.9 °F 29.75 in SE 4.0 mph 8.0 mph 57 % 0.00 in
15:20 93.2 °F 75.7 °F 29.75 in South 5.0 mph 8.0 mph 57 % 0.00 in
15:25 93.7 °F 76.3 °F 29.75 in SE 5.0 mph 8.0 mph 57 % 0.00 in
15:30 93.7 °F 75.2 °F 29.75 in SE 5.0 mph 9.0 mph 55 % 0.00 in
15:35 93.4 °F 75.9 °F 29.75 in ESE 7.0 mph 10.0 mph 57 % 0.00 in
15:40 93.4 °F 75.4 °F 29.74 in ESE 9.0 mph 11.0 mph 56 % 0.00 in
15:45 92.8 °F 74.8 °F 29.74 in East 5.0 mph 11.0 mph 56 % 0.00 in
15:50 92.8 °F 75.4 °F 29.74 in SSE 4.0 mph 11.0 mph 57 % 0.00 in
15:55 92.8 °F 74.8 °F 29.74 in East 2.0 mph 10.0 mph 56 % 0.00 in
16:00 93.0 °F 75.6 °F 29.74 in SSE 5.0 mph 8.0 mph 57 % 0.00 in
16:05 93.0 °F 75.0 °F 29.74 in SSE 3.0 mph 8.0 mph 56 % 0.00 in
16:10 92.8 °F 74.3 °F 29.74 in East 3.0 mph 8.0 mph 55 % 0.00 in
16:15 92.5 °F 75.0 °F 29.74 in SSE 3.0 mph 7.0 mph 57 % 0.00 in
16:20 92.7 °F 75.2 °F 29.75 in SSE 1.0 mph 6.0 mph 57 % 0.00 in
16:25 92.7 °F 74.7 °F 29.75 in SE 4.0 mph 10.0 mph 56 % 0.00 in
16:30 92.1 °F 75.2 °F 29.75 in SE 4.0 mph 10.0 mph 58 % 0.00 in
16:35 92.7 °F 75.2 °F 29.75 in SE 4.0 mph 10.0 mph 57 % 0.00 in
16:40 92.7 °F 75.2 °F 29.74 in SSE 4.0 mph 9.0 mph 57 % 0.00 in
16:45 92.5 °F 75.0 °F 29.75 in SSE 3.0 mph 7.0 mph 57 % 0.00 in
16:50 92.7 °F 74.7 °F 29.75 in SE 4.0 mph 7.0 mph 56 % 0.00 in
16:55 93.0 °F 74.5 °F 29.74 in SE 4.0 mph 7.0 mph 55 % 0.00 in
17:00 93.0 °F 73.9 °F 29.75 in SSE 3.0 mph 8.0 mph 54 % 0.00 in
17:05 92.8 °F 74.3 °F 29.75 in SE 6.0 mph 8.0 mph 55 % 0.00 in
17:10 92.7 °F 74.1 °F 29.75 in SSE 4.0 mph 8.0 mph 55 % 0.00 in
17:15 92.7 °F 74.1 °F 29.75 in SE 4.0 mph 8.0 mph 55 % 0.00 in
17:20 92.7 °F 74.7 °F 29.75 in East 6.0 mph 8.0 mph 56 % 0.00 in
17:22 92.7 °F 74.1 °F 29.75 in SSE 2.0 mph 8.0 mph 55 % 0.00 in
17:27 92.5 °F 74.5 °F 29.75 in SE 6.0 mph 10.0 mph 56 % 0.00 in
17:28 92.5 °F 73.4 °F 29.75 in ESE 6.0 mph 10.0 mph 54 % 0.00 in
17:32 92.5 °F 73.9 °F 29.75 in SSE 3.0 mph 10.0 mph 55 % 0.00 in
17:37 92.3 °F 72.7 °F 29.75 in South 6.0 mph 10.0 mph 53 % 0.00 in
17:42 92.1 °F 73.6 °F 29.75 in South 4.0 mph 8.0 mph 55 % 0.00 in
17:47 91.9 °F 73.9 °F 29.75 in SSE 3.0 mph 8.0 mph 56 % 0.00 in
17:52 91.6 °F 74.7 °F 29.75 in South 5.0 mph 9.0 mph 58 % 0.00 in
17:55 91.2 °F 74.8 °F 29.75 in ESE 3.0 mph 9.0 mph 59 % 0.00 in
18:05 90.5 °F 75.7 °F 29.76 in East 6.0 mph 8.0 mph 62 % 0.00 in
18:10 90.5 °F 75.7 °F 29.76 in SE 4.0 mph 8.0 mph 62 % 0.00 in
18:15 90.3 °F 75.6 °F 29.76 in SSE 3.0 mph 8.0 mph 62 % 0.00 in
18:20 90.1 °F 75.4 °F 29.76 in East 6.0 mph 8.0 mph 62 % 0.00 in
18:25 90.1 °F 75.9 °F 29.76 in ESE 4.0 mph 8.0 mph 63 % 0.00 in
18:30 90.0 °F 76.1 °F 29.76 in ESE 4.0 mph 8.0 mph 64 % 0.00 in
18:35 89.8 °F 75.9 °F 29.77 in SE 3.0 mph 9.0 mph 64 % 0.00 in
18:45 89.2 °F 75.9 °F 29.77 in ESE 6.0 mph 10.0 mph 65 % 0.00 in
18:50 88.9 °F 75.6 °F 29.77 in ESE 6.0 mph 10.0 mph 65 % 0.00 in
18:55 88.7 °F 75.9 °F 29.77 in SE 3.0 mph 10.0 mph 66 % 0.00 in
19:00 88.5 °F 75.7 °F 29.77 in ESE 1.0 mph 10.0 mph 66 % 0.00 in
19:05 88.2 °F 75.7 °F 29.77 in SSE 3.0 mph 8.0 mph 67 % 0.00 in
19:10 87.6 °F 75.7 °F 29.78 in South 2.0 mph 6.0 mph 68 % 0.00 in
19:15 87.6 °F 75.7 °F 29.78 in SSW 4.0 mph 6.0 mph 68 % 0.00 in
19:20 87.4 °F 76.5 °F 29.78 in SE 5.0 mph 8.0 mph 70 % 0.00 in
19:26 87.3 °F 76.6 °F 29.79 in SE 4.0 mph 9.0 mph 71 % 0.00 in
19:31 87.1 °F 77.0 °F 29.79 in SE 2.0 mph 9.0 mph 72 % 0.00 in
19:36 86.7 °F 77.0 °F 29.79 in SSE 6.0 mph 9.0 mph 73 % 0.00 in
19:41 86.5 °F 77.2 °F 29.79 in SE 3.0 mph 7.0 mph 74 % 0.00 in
19:46 86.4 °F 77.5 °F 29.79 in SE 3.0 mph 7.0 mph 75 % 0.00 in
19:51 86.2 °F 77.7 °F 29.80 in SE 4.0 mph 11.0 mph 76 % 0.00 in
19:56 85.8 °F 77.4 °F 29.80 in SSW 3.0 mph 11.0 mph 76 % 0.00 in
20:01 85.6 °F 77.2 °F 29.80 in ESE 4.0 mph 11.0 mph 76 % 0.00 in
20:06 85.6 °F 77.2 °F 29.81 in SSE 2.0 mph 8.0 mph 76 % 0.00 in
20:11 85.3 °F 77.2 °F 29.81 in SSE 3.0 mph 7.0 mph 77 % 0.00 in
20:16 84.9 °F 77.4 °F 29.81 in SE 5.0 mph 7.0 mph 78 % 0.00 in
20:21 84.9 °F 77.4 °F 29.81 in ESE 6.0 mph 7.0 mph 78 % 0.00 in
20:26 84.7 °F 77.2 °F 29.81 in SSE 4.0 mph 7.0 mph 78 % 0.00 in
20:31 84.7 °F 77.2 °F 29.81 in ESE 6.0 mph 7.0 mph 78 % 0.00 in
20:36 84.6 °F 77.4 °F 29.82 in South 4.0 mph 12.0 mph 79 % 0.00 in
20:41 84.4 °F 77.2 °F 29.82 in South 3.0 mph 12.0 mph 79 % 0.00 in
20:46 84.0 °F 77.2 °F 29.82 in South 5.0 mph 12.0 mph 80 % 0.00 in
20:51 83.8 °F 77.0 °F 29.82 in SE 3.0 mph 10.0 mph 80 % 0.00 in
20:56 83.8 °F 77.4 °F 29.83 in SE 3.0 mph 9.0 mph 81 % 0.00 in
21:01 83.7 °F 77.2 °F 29.83 in SE 2.0 mph 10.0 mph 81 % 0.00 in
21:06 83.5 °F 77.0 °F 29.83 in SE 4.0 mph 10.0 mph 81 % 0.00 in
21:11 83.3 °F 77.2 °F 29.83 in SE 5.0 mph 10.0 mph 82 % 0.00 in
21:22 82.9 °F 76.8 °F 29.83 in SSE 4.0 mph 7.0 mph 82 % 0.00 in
21:27 82.8 °F 77.0 °F 29.84 in SE 6.0 mph 7.0 mph 83 % 0.00 in
21:32 82.6 °F 76.8 °F 29.83 in SE 6.0 mph 7.0 mph 83 % 0.00 in
21:37 82.6 °F 76.8 °F 29.84 in SE 2.0 mph 8.0 mph 83 % 0.00 in
21:42 82.2 °F 76.8 °F 29.84 in ESE 3.0 mph 8.0 mph 84 % 0.00 in
21:52 82.0 °F 77.0 °F 29.84 in SSW 2.0 mph 7.0 mph 85 % 0.00 in
21:57 81.9 °F 76.8 °F 29.85 in SE 3.0 mph 7.0 mph 85 % 0.00 in
22:02 81.7 °F 76.6 °F 29.85 in SSE 1.0 mph 6.0 mph 85 % 0.00 in
22:07 81.5 °F 76.8 °F 29.85 in SE 4.0 mph 6.0 mph 86 % 0.00 in
22:12 81.3 °F 76.6 °F 29.85 in SE 3.0 mph 5.0 mph 86 % 0.00 in
22:17 81.3 °F 76.6 °F 29.86 in SE 1.0 mph 5.0 mph 86 % 0.00 in
22:21 81.1 °F 76.8 °F 29.86 in SSE 2.0 mph 5.0 mph 87 % 0.00 in
22:23 81.1 °F 76.8 °F 29.86 in SE 2.0 mph 5.0 mph 87 % 0.00 in
22:28 81.0 °F 76.6 °F 29.86 in Calm   5.0 mph 87 % 0.00 in
22:33 81.0 °F 76.6 °F 29.86 in SSE 2.0 mph 4.0 mph 87 % 0.00 in
22:38 80.8 °F 76.5 °F 29.86 in Calm   4.0 mph 87 % 0.00 in
22:43 80.8 °F 76.8 °F 29.86 in SSE 2.0 mph 4.0 mph 88 % 0.00 in
22:53 80.6 °F 76.6 °F 29.87 in Calm   4.0 mph 88 % 0.00 in
22:58 80.4 °F 76.5 °F 29.87 in SSE 1.0 mph 4.0 mph 88 % 0.00 in
23:03 80.2 °F 76.6 °F 29.87 in ESE 1.0 mph 4.0 mph 89 % 0.00 in
23:08 80.2 °F 76.6 °F 29.87 in ESE 2.0 mph 3.0 mph 89 % 0.00 in
23:13 80.1 °F 76.5 °F 29.87 in SE 1.0 mph 2.0 mph 89 % 0.00 in
23:18 79.9 °F 76.6 °F 29.87 in Calm   2.0 mph 90 % 0.00 in
23:23 79.9 °F 76.6 °F 29.88 in Calm   2.0 mph 90 % 0.00 in
23:28 79.7 °F 76.5 °F 29.88 in East 2.0 mph 2.0 mph 90 % 0.00 in
23:33 79.5 °F 76.3 °F 29.88 in ESE 2.0 mph 2.0 mph 90 % 0.00 in
23:38 79.5 °F 76.6 °F 29.88 in SE 1.0 mph 2.0 mph 91 % 0.00 in
23:43 79.3 °F 76.5 °F 29.88 in Calm   2.0 mph 91 % 0.00 in
23:48 79.3 °F 76.5 °F 29.88 in Calm   2.0 mph 91 % 0.00 in
23:53 79.0 °F 76.1 °F 29.88 in Calm   1.0 mph 91 % 0.00 in
23:58 79.0 °F 76.5 °F 29.88 in SE 1.0 mph 1.0 mph 92 % 0.00 in
Spring, Texas: Villages of Bridgestone
Compliments of Weather Underground - 2.75 mb

Script developed by  Jim McMurry - jmcmurry@mwt.net Adapted for the template by  Wim van der Kuil - Leuven-Template.eu

You find our weather info also at:

UK Metoffice

WeatherCloud

Weather Underground

Mid-South Weather Network

AWEKAS

Citizen Weather Observer Program (CWOP)

HAMweather, WeatherForYou, PWS Weather

Equipment we use:

Weather-station
Davis Vantage Vue

Weather-program
Meteohub

Weather-server
Debian 7.9 x86 (Guest)

Provider
DreamHost

Davis Vantage Vue

Meteohub

Debian 7.9 x86 (Guest)

DreamHost